Time;durP1;ratioP1;P1;durP2;ratioP2;P2;SDS_P1;SDS_P2;PMS_P1;PMS_P2;Temp;Humidity;BMP_temperature;BMP_pressure;BME280_temperature;BME280_humidity;BME280_pressure;Samples;Min_cycle;Max_cycle;Signal;HPM_P1;HPM_P2
2022/08/29 00:00:48;;;;;;;;;;;;;;;;;;5061939;28;1945;-71
2022/08/29 00:03:13;;;;;;;;;;;;;;;;;;5061280;28;2082;-71
2022/08/29 00:05:38;;;;;;;;;;;;;;;;;;5057870;28;1905;-71
2022/08/29 00:08:04;;;;;;;;;;;;;;;;;;5064385;28;2115;-71
2022/08/29 00:10:30;;;;;;;;;;;;;;;;;;5061033;28;1959;-71
2022/08/29 00:12:56;;;;;;;;;;;;;;;;;;5061535;28;2729;-71
2022/08/29 00:15:21;;;;;;;;;;;;;;;;;;5065488;28;1833;-71
2022/08/29 00:17:46;;;;;;;;;;;;;;;;;;5061695;28;2178;-71
2022/08/29 00:20:13;;;;;;;;;;;;;;;;;;5061897;28;2749;-71
2022/08/29 00:22:39;;;;;;;;;;;;;;;;;;5060532;28;2749;-71
2022/08/29 00:25:05;;;;;;;;;;;;;;;;;;5061223;28;1964;-71
2022/08/29 00:27:31;;;;;;;;;;;;;;;;;;5058621;28;1951;-71
2022/08/29 00:29:56;;;;;;;;;;;;;;;;;;5058045;28;2347;-71
2022/08/29 00:32:21;;;;;;;;;;;;;;;;;;5060937;28;2882;-71
2022/08/29 00:34:46;;;;;;;;;;;;;;;;;;5060185;28;2794;-71
2022/08/29 00:37:11;;;;;;;;;;;;;;;;;;5062238;28;2224;-71
2022/08/29 00:39:36;;;;;;;;;;;;;;;;;;5060567;28;2764;-71
2022/08/29 00:42:02;;;;;;;;;;;;;;;;;;5051037;28;2012;-71
2022/08/29 00:44:27;;;;;;;;;;;;;;;;;;5057795;28;2865;-71
2022/08/29 00:46:54;;;;;;;;;;;;;;;;;;5062862;28;2774;-71
2022/08/29 00:49:40;;;;;;;;;;;;;;;;;;5062839;28;2113;-71
2022/08/29 00:52:17;;;;;;;;;;;;;;;;;;5057432;28;2055;-71
2022/08/29 00:54:45;;;;;;;;;;;;;;;;;;5056318;28;2808;-71
2022/08/29 00:57:11;;;;;;;;;;;;;;;;;;5060907;28;2873;-71
2022/08/29 00:59:37;;;;;;;;;;;;;;;;;;5059233;28;2796;-71
2022/08/29 01:02:03;;;;;;;;;;;;;;;;;;5065679;28;1996;-71
2022/08/29 01:04:28;;;;;;;;;;;;;;;;;;5059393;28;2090;-71
2022/08/29 01:06:54;;;;;;;;;;;;;;;;;;5064639;28;2260;-71
2022/08/29 01:09:20;;;;;;;;;;;;;;;;;;5057960;28;2190;-71
2022/08/29 01:14:29;;;;;;;;;;;;;;;;;;5055482;28;2001;-71
2022/08/29 01:16:56;;;;;;;;;;;;;;;;;;5061440;28;1900;-71
2022/08/29 01:19:36;;;;;;;;;;;;;;;;;;5057373;28;2832;-71
2022/08/29 01:22:06;;;;;;;;;;;;;;;;;;5056375;28;1735;-71
2022/08/29 01:24:35;;;;;;;;;;;;;;;;;;5053510;28;2054;-71
2022/08/29 01:27:00;;;;;;;;;;;;;;;;;;5058611;28;2173;-71
2022/08/29 01:29:25;;;;;;;;;;;;;;;;;;5051744;28;2757;-71
2022/08/29 01:31:50;;;;;;;;;;;;;;;;;;5054295;28;2161;-71
2022/08/29 01:34:16;;;;;;;;;;;;;;;;;;5058536;28;2772;-71
2022/08/29 01:36:52;;;;;;;;;;;;;;;;;;5059143;28;2169;-71
2022/08/29 01:39:18;;;;;;;;;;;;;;;;;;5056004;28;2199;-71
2022/08/29 01:41:44;;;;;;;;;;;;;;;;;;5062546;28;2358;-71
2022/08/29 01:44:10;;;;;;;;;;;;;;;;;;5059534;28;2356;-71
2022/08/29 01:46:36;;;;;;;;;;;;;;;;;;5060997;28;2737;-71
2022/08/29 01:49:02;;;;;;;;;;;;;;;;;;5059045;28;2474;-71
2022/08/29 01:51:27;;;;;;;;;;;;;;;;;;5057158;28;2352;-71
2022/08/29 01:53:53;;;;;;;;;;;;;;;;;;5063808;28;2339;-71
2022/08/29 01:56:20;;;;;;;;;;;;;;;;;;5064238;28;2293;-71
2022/08/29 01:58:47;;;;;;;;;;;;;;;;;;5057340;28;2427;-71
2022/08/29 02:01:14;;;;;;;;;;;;;;;;;;5060743;28;2603;-71
2022/08/29 02:03:39;;;;;;;;;;;;;;;;;;5060565;28;2631;-71
2022/08/29 02:06:04;;;;;;;;;;;;;;;;;;5055805;28;2129;-71
2022/08/29 02:08:30;;;;;;;;;;;;;;;;;;5061079;28;2312;-71
2022/08/29 02:10:57;;;;;;;;;;;;;;;;;;5064377;28;2022;-71
2022/08/29 02:13:23;;;;;;;;;;;;;;;;;;5059276;28;2751;-71
2022/08/29 02:15:48;;;;;;;;;;;;;;;;;;5058259;28;2236;-71
2022/08/29 02:18:13;;;;;;;;;;;;;;;;;;5065950;28;2382;-71
2022/08/29 02:20:39;;;;;;;;;;;;;;;;;;5063404;28;2249;-71
2022/08/29 02:23:04;;;;;;;;;;;;;;;;;;5048118;28;2360;-71
2022/08/29 02:25:41;;;;;;;;;;;;;;;;;;5059507;28;2578;-71
2022/08/29 02:28:07;;;;;;;;;;;;;;;;;;5061875;28;2456;-71
2022/08/29 02:30:32;;;;;;;;;;;;;;;;;;5060920;28;2237;-71
2022/08/29 02:32:58;;;;;;;;;;;;;;;;;;5062529;28;2216;-71
2022/08/29 02:35:23;;;;;;;;;;;;;;;;;;5060232;28;2894;-72
2022/08/29 02:37:48;;;;;;;;;;;;;;;;;;5062782;28;2297;-71
2022/08/29 02:40:13;;;;;;;;;;;;;;;;;;5063929;28;2914;-71
2022/08/29 02:42:38;;;;;;;;;;;;;;;;;;5063595;28;2622;-71
2022/08/29 02:45:04;;;;;;;;;;;;;;;;;;5059668;28;2623;-71
2022/08/29 02:47:31;;;;;;;;;;;;;;;;;;5064336;28;2355;-71
2022/08/29 02:49:57;;;;;;;;;;;;;;;;;;5065533;28;3064;-71
2022/08/29 02:52:22;;;;;;;;;;;;;;;;;;5060845;28;2970;-71
2022/08/29 02:54:47;;;;;;;;;;;;;;;;;;5066199;28;2410;-71
2022/08/29 02:57:12;;;;;;;;;;;;;;;;;;5067057;28;2794;-71
2022/08/29 02:59:37;;;;;;;;;;;;;;;;;;5067085;28;2461;-71
2022/08/29 03:02:03;;;;;;;;;;;;;;;;;;5063298;28;2773;-71
2022/08/29 03:04:28;;;;;;;;;;;;;;;;;;5060509;28;2782;-71
2022/08/29 03:06:53;;;;;;;;;;;;;;;;;;5068829;28;2347;-71
2022/08/29 03:09:18;;;;;;;;;;;;;;;;;;5063791;28;2999;-71
2022/08/29 03:11:43;;;;;;;;;;;;;;;;;;5058562;28;2386;-71
2022/08/29 03:14:09;;;;;;;;;;;;;;;;;;5066038;28;2939;-71
2022/08/29 03:16:34;;;;;;;;;;;;;;;;;;5058750;28;2095;-71
2022/08/29 03:18:59;;;;;;;;;;;;;;;;;;5060405;28;2692;-71
2022/08/29 03:21:25;;;;;;;;;;;;;;;;;;5062472;28;2524;-71
2022/08/29 03:23:50;;;;;;;;;;;;;;;;;;5063145;28;2328;-71
2022/08/29 03:26:16;;;;;;;;;;;;;;;;;;5057543;28;2439;-71
2022/08/29 03:28:41;;;;;;;;;;;;;;;;;;5061512;28;2812;-71
2022/08/29 03:31:06;;;;;;;;;;;;;;;;;;5058991;28;2257;-71
2022/08/29 03:33:32;;;;;;;;;;;;;;;;;;5059974;28;2508;-71
2022/08/29 03:35:57;;;;;;;;;;;;;;;;;;5061025;28;2525;-71
2022/08/29 03:38:22;;;;;;;;;;;;;;;;;;5059773;28;2484;-71
2022/08/29 03:40:47;;;;;;;;;;;;;;;;;;5056946;28;2653;-71
2022/08/29 03:43:12;;;;;;;;;;;;;;;;;;5059187;28;2364;-71
2022/08/29 03:45:38;;;;;;;;;;;;;;;;;;5061744;28;2422;-71
2022/08/29 03:48:03;;;;;;;;;;;;;;;;;;5055364;28;2556;-71
2022/08/29 03:50:29;;;;;;;;;;;;;;;;;;5060726;28;2934;-71
2022/08/29 03:52:54;;;;;;;;;;;;;;;;;;5063010;28;2103;-71
2022/08/29 03:55:19;;;;;;;;;;;;;;;;;;5063272;28;2381;-71
2022/08/29 03:57:44;;;;;;;;;;;;;;;;;;5061902;28;2288;-71
2022/08/29 04:00:12;;;;;;;;;;;;;;;;;;5066324;28;2387;-71
2022/08/29 04:02:38;;;;;;;;;;;;;;;;;;5058671;28;2331;-71
2022/08/29 04:05:06;;;;;;;;;;;;;;;;;;5062897;28;2624;-71
2022/08/29 04:07:39;;;;;;;;;;;;;;;;;;5057477;28;2377;-71
2022/08/29 04:10:05;;;;;;;;;;;;;;;;;;5067796;28;2057;-71
2022/08/29 04:12:30;;;;;;;;;;;;;;;;;;5061421;28;2420;-71
2022/08/29 04:14:55;;;;;;;;;;;;;;;;;;5068649;28;3036;-71
2022/08/29 04:17:20;;;;;;;;;;;;;;;;;;5059484;28;2323;-71
2022/08/29 04:19:45;;;;;;;;;;;;;;;;;;5065847;28;2331;-71
2022/08/29 04:22:12;;;;;;;;;;;;;;;;;;5064898;28;2815;-71
2022/08/29 04:24:37;;;;;;;;;;;;;;;;;;5063765;28;2165;-71
2022/08/29 04:27:02;;;;;;;;;;;;;;;;;;5063567;28;2323;-71
2022/08/29 04:29:28;;;;;;;;;;;;;;;;;;5061771;28;2807;-71
2022/08/29 04:31:53;;;;;;;;;;;;;;;;;;5064861;28;2179;-71
2022/08/29 04:34:19;;;;;;;;;;;;;;;;;;5068753;28;2764;-71
2022/08/29 04:36:46;;;;;;;;;;;;;;;;;;5060781;28;2238;-71
2022/08/29 04:39:12;;;;;;;;;;;;;;;;;;5065470;28;2493;-71
2022/08/29 04:41:37;;;;;;;;;;;;;;;;;;5062673;28;2312;-71
2022/08/29 04:44:03;;;;;;;;;;;;;;;;;;5068195;28;2802;-71
2022/08/29 04:46:28;;;;;;;;;;;;;;;;;;5061993;28;2234;-71
2022/08/29 04:48:54;;;;;;;;;;;;;;;;;;5060600;28;2992;-71
2022/08/29 04:51:19;;;;;;;;;;;;;;;;;;5062608;28;2321;-71
2022/08/29 04:53:45;;;;;;;;;;;;;;;;;;5061236;28;2511;-71
2022/08/29 04:56:11;;;;;;;;;;;;;;;;;;5062738;28;2602;-71
2022/08/29 04:58:37;;;;;;;;;;;;;;;;;;5054391;28;2023;-71
2022/08/29 05:01:03;;;;;;;;;;;;;;;;;;5056610;28;2470;-71
2022/08/29 05:03:28;;;;;;;;;;;;;;;;;;5053947;28;2230;-71
2022/08/29 05:05:57;;;;;;;;;;;;;;;;;;5058470;28;2875;-71
2022/08/29 05:08:23;;;;;;;;;;;;;;;;;;5055971;28;2462;-71
2022/08/29 05:10:48;;;;;;;;;;;;;;;;;;5059333;28;2206;-71
2022/08/29 05:13:13;;;;;;;;;;;;;;;;;;5057901;28;2386;-71
2022/08/29 05:15:38;;;;;;;;;;;;;;;;;;5057434;28;2865;-71
2022/08/29 05:18:03;;;;;;;;;;;;;;;;;;5060760;28;2629;-71
2022/08/29 05:20:28;;;;;;;;;;;;;;;;;;5054659;28;2957;-71
2022/08/29 05:22:54;;;;;;;;;;;;;;;;;;5059702;28;2330;-71
2022/08/29 05:25:19;;;;;;;;;;;;;;;;;;5057088;28;2644;-71
2022/08/29 05:27:44;;;;;;;;;;;;;;;;;;5055825;28;2824;-71
2022/08/29 05:30:09;;;;;;;;;;;;;;;;;;5060542;28;2910;-71
2022/08/29 05:32:34;;;;;;;;;;;;;;;;;;5057598;28;2812;-71
2022/08/29 05:35:00;;;;;;;;;;;;;;;;;;5059991;28;2880;-71
2022/08/29 05:37:25;;;;;;;;;;;;;;;;;;5054542;28;2918;-71
2022/08/29 05:39:51;;;;;;;;;;;;;;;;;;5061485;28;2658;-71
2022/08/29 05:42:18;;;;;;;;;;;;;;;;;;5053287;28;2365;-71
2022/08/29 05:44:43;;;;;;;;;;;;;;;;;;5057161;28;2249;-71
2022/08/29 05:47:09;;;;;;;;;;;;;;;;;;5053133;28;2232;-71
2022/08/29 05:49:39;;;;;;;;;;;;;;;;;;5057524;28;2548;-71
2022/08/29 05:52:04;;;;;;;;;;;;;;;;;;5053589;28;2265;-71
2022/08/29 05:54:31;;;;;;;;;;;;;;;;;;5053596;28;2434;-71
2022/08/29 05:56:56;;;;;;;;;;;;;;;;;;5058185;28;2343;-71
2022/08/29 05:59:21;;;;;;;;;;;;;;;;;;5055322;28;2352;-71
2022/08/29 06:01:47;;;;;;;;;;;;;;;;;;5055957;28;2396;-71
2022/08/29 06:04:12;;;;;;;;;;;;;;;;;;5057041;28;2150;-71
2022/08/29 06:06:38;;;;;;;;;;;;;;;;;;5054922;28;2222;-71
2022/08/29 06:09:03;;;;;;;;;;;;;;;;;;5060997;28;2133;-71
2022/08/29 06:11:29;;;;;;;;;;;;;;;;;;5052428;28;2744;-71
2022/08/29 06:13:55;;;;;;;;;;;;;;;;;;5059650;28;2928;-71
2022/08/29 06:16:21;;;;;;;;;;;;;;;;;;5053240;28;2284;-71
2022/08/29 06:18:46;;;;;;;;;;;;;;;;;;5055183;28;2364;-71
2022/08/29 06:21:12;;;;;;;;;;;;;;;;;;5055755;28;2910;-71
2022/08/29 06:23:38;;;;;;;;;;;;;;;;;;5057552;28;2175;-71
2022/08/29 06:26:04;;;;;;;;;;;;;;;;;;5058459;28;3061;-71
2022/08/29 06:28:30;;;;;;;;;;;;;;;;;;5053993;28;2835;-71
2022/08/29 06:30:55;;;;;;;;;;;;;;;;;;5057298;28;2725;-71
2022/08/29 06:33:20;;;;;;;;;;;;;;;;;;5055800;28;2820;-71
2022/08/29 06:35:45;;;;;;;;;;;;;;;;;;5053178;28;2923;-71
2022/08/29 06:38:10;;;;;;;;;;;;;;;;;;5057862;28;2799;-71
2022/08/29 06:40:36;;;;;;;;;;;;;;;;;;5058198;28;2635;-71
2022/08/29 06:43:01;;;;;;;;;;;;;;;;;;5057252;28;2803;-71
2022/08/29 06:45:26;;;;;;;;;;;;;;;;;;5052139;28;2557;-71
2022/08/29 06:47:51;;;;;;;;;;;;;;;;;;5060112;28;2779;-71
2022/08/29 06:50:17;;;;;;;;;;;;;;;;;;5054658;28;2348;-71
2022/08/29 06:52:42;;;;;;;;;;;;;;;;;;5056489;28;2870;-71
2022/08/29 06:55:11;;;;;;;;;;;;;;;;;;5060161;28;2809;-71
2022/08/29 06:57:41;;;;;;;;;;;;;;;;;;5056049;28;2703;-71
2022/08/29 07:00:09;;;;;;;;;;;;;;;;;;5047339;28;2795;-71
2022/08/29 07:02:34;;;;;;;;;;;;;;;;;;5055740;28;2720;-71
2022/08/29 07:04:59;;;;;;;;;;;;;;;;;;5061008;28;2334;-71
2022/08/29 07:07:24;;;;;;;;;;;;;;;;;;5057620;28;2258;-71
2022/08/29 07:09:49;;;;;;;;;;;;;;;;;;5061762;28;2804;-71
2022/08/29 07:12:15;;;;;;;;;;;;;;;;;;5058986;28;2512;-71
2022/08/29 07:14:40;;;;;;;;;;;;;;;;;;5059681;28;2785;-71
2022/08/29 07:17:05;;;;;;;;;;;;;;;;;;5056388;28;2396;-71
2022/08/29 07:19:30;;;;;;;;;;;;;;;;;;5056285;28;2901;-71
2022/08/29 07:21:56;;;;;;;;;;;;;;;;;;5057509;28;2083;-71
2022/08/29 07:24:21;;;;;;;;;;;;;;;;;;5060852;28;3119;-72
2022/08/29 07:26:46;;;;;;;;;;;;;;;;;;5059695;28;2325;-72
2022/08/29 07:29:14;;;;;;;;;;;;;;;;;;5060625;28;2793;-72
2022/08/29 07:31:39;;;;;;;;;;;;;;;;;;5057225;28;2793;-72
2022/08/29 07:34:05;;;;;;;;;;;;;;;;;;5063397;28;2758;-72
2022/08/29 07:36:32;;;;;;;;;;;;;;;;;;5054561;28;2269;-72
2022/08/29 07:38:57;;;;;;;;;;;;;;;;;;5061812;28;2329;-72
2022/08/29 07:41:23;;;;;;;;;;;;;;;;;;5056649;28;2857;-72
2022/08/29 07:43:49;;;;;;;;;;;;;;;;;;5063833;28;1976;-72
2022/08/29 07:46:16;;;;;;;;;;;;;;;;;;5059314;28;2820;-72
2022/08/29 07:48:42;;;;;;;;;;;;;;;;;;5060386;28;2778;-72
2022/08/29 07:51:12;;;;;;;;;;;;;;;;;;5061412;28;2819;-72
2022/08/29 07:53:37;;;;;;;;;;;;;;;;;;5057202;28;1947;-72
2022/08/29 07:56:06;;;;;;;;;;;;;;;;;;5060255;28;2366;-72
2022/08/29 07:58:32;;;;;;;;;;;;;;;;;;5056329;28;2902;-72
2022/08/29 08:00:57;;;;;;;;;;;;;;;;;;5059966;28;2792;-72
2022/08/29 08:03:22;;;;;;;;;;;;;;;;;;5058217;28;1984;-72
2022/08/29 08:05:47;;;;;;;;;;;;;;;;;;5061659;28;2791;-72
2022/08/29 08:08:13;;;;;;;;;;;;;;;;;;5061187;28;2987;-72
2022/08/29 08:10:38;;;;;;;;;;;;;;;;;;5063011;28;1978;-72
2022/08/29 08:13:03;;;;;;;;;;;;;;;;;;5059776;28;2249;-72
2022/08/29 08:15:28;;;;;;;;;;;;;;;;;;5060645;28;2819;-72
2022/08/29 08:17:53;;;;;;;;;;;;;;;;;;5062763;28;2781;-72
2022/08/29 08:20:18;;;;;;;;;;;;;;;;;;5062709;28;2785;-72
2022/08/29 08:22:44;;;;;;;;;;;;;;;;;;5057296;28;1670;-72
2022/08/29 08:25:09;;;;;;;;;;;;;;;;;;5064508;28;2676;-72
2022/08/29 08:27:34;;;;;;;;;;;;;;;;;;5056230;28;1910;-72
2022/08/29 08:29:59;;;;;;;;;;;;;;;;;;5062454;28;2098;-72
2022/08/29 08:32:24;;;;;;;;;;;;;;;;;;5057157;28;1784;-72
2022/08/29 08:34:50;;;;;;;;;;;;;;;;;;5063473;28;2641;-72
2022/08/29 08:37:16;;;;;;;;;;;;;;;;;;5039905;28;1831;-72
2022/08/29 08:39:41;;;;;;;;;;;;;;;;;;5057926;28;1971;-72
2022/08/29 08:42:30;;;;;;;;;;;;;;;;;;5059335;28;1713;-72
2022/08/29 08:45:15;;;;;;;;;;;;;;;;;;5052749;28;2267;-72
2022/08/29 08:47:43;;;;;;;;;;;;;;;;;;5056553;28;1914;-72
2022/08/29 08:50:17;;;;;;;;;;;;;;;;;;5060999;28;2814;-72
2022/08/29 08:52:49;;;;;;;;;;;;;;;;;;5058794;28;1657;-72
2022/08/29 08:55:23;;;;;;;;;;;;;;;;;;5057512;28;2333;-72
2022/08/29 08:57:53;;;;;;;;;;;;;;;;;;5056795;28;2793;-72
2022/08/29 09:00:18;;;;;;;;;;;;;;;;;;5062205;28;2851;-72
2022/08/29 09:02:44;;;;;;;;;;;;;;;;;;5056548;28;1694;-72
2022/08/29 09:05:18;;;;;;;;;;;;;;;;;;5063493;28;2075;-72
2022/08/29 09:07:52;;;;;;;;;;;;;;;;;;5058307;28;1918;-72
2022/08/29 09:10:17;;;;;;;;;;;;;;;;;;5056698;28;2031;-72
2022/08/29 09:12:46;;;;;;;;;;;;;;;;;;5056052;28;1631;-72
2022/08/29 09:15:13;;;;;;;;;;;;;;;;;;5051703;28;2674;-72
2022/08/29 09:17:41;;;;;;;;;;;;;;;;;;5055761;28;1878;-72
2022/08/29 09:20:33;;;;;;;;;;;;;;;;;;5062425;28;2823;-72
2022/08/29 09:23:01;;;;;;;;;;;;;;;;;;5056118;28;1757;-72
2022/08/29 09:25:30;;;;;;;;;;;;;;;;;;5058049;28;2438;-72
2022/08/29 09:27:58;;;;;;;;;;;;;;;;;;5055998;28;1914;-72
2022/08/29 09:30:24;;;;;;;;;;;;;;;;;;5060405;28;2155;-72
2022/08/29 09:32:51;;;;;;;;;;;;;;;;;;5056060;28;2167;-72
2022/08/29 09:35:23;;;;;;;;;;;;;;;;;;5065299;28;2778;-72
2022/08/29 09:37:59;;;;;;;;;;;;;;;;;;5058821;28;1688;-72
2022/08/29 09:40:39;;;;;;;;;;;;;;;;;;5059775;28;1984;-72
2022/08/29 09:43:06;;;;;;;;;;;;;;;;;;5057616;28;1780;-72
2022/08/29 09:45:31;;;;;;;;;;;;;;;;;;5061032;28;2130;-73
2022/08/29 09:48:08;;;;;;;;;;;;;;;;;;5056028;28;1918;-72
2022/08/29 09:50:33;;;;;;;;;;;;;;;;;;5060669;28;2821;-73
2022/08/29 09:52:59;;;;;;;;;;;;;;;;;;5055547;28;1689;-73
2022/08/29 09:55:30;;;;;;;;;;;;;;;;;;5059563;28;2788;-72
2022/08/29 09:58:00;;;;;;;;;;;;;;;;;;5038244;28;2001;-72
2022/08/29 10:00:28;;;;;;;;;;;;;;;;;;5058591;28;2389;-73
2022/08/29 10:02:55;;;;;;;;;;;;;;;;;;5055839;28;2134;-72
2022/08/29 10:05:29;;;;;;;;;;;;;;;;;;5062322;28;2816;-73
2022/08/29 10:07:56;;;;;;;;;;;;;;;;;;5055597;28;1927;-73
2022/08/29 10:10:26;;;;;;;;;;;;;;;;;;5061615;28;2863;-73
2022/08/29 10:13:10;;;;;;;;;;;;;;;;;;5055554;28;1721;-73
2022/08/29 10:15:56;;;;;;;;;;;;;;;;;;5057665;28;2892;-72
2022/08/29 10:18:27;;;;;;;;;;;;;;;;;;5053884;28;1764;-73
2022/08/29 10:20:58;;;;;;;;;;;;;;;;;;5059329;28;2050;-72
2022/08/29 10:23:23;;;;;;;;;;;;;;;;;;5059752;28;2892;-73
2022/08/29 10:25:49;;;;;;;;;;;;;;;;;;5057471;28;2939;-73
2022/08/29 10:28:33;;;;;;;;;;;;;;;;;;5052989;28;1991;-71
2022/08/29 10:31:03;;;;;;;;;;;;;;;;;;5062701;28;2765;-71
2022/08/29 10:33:38;;;;;;;;;;;;;;;;;;5053708;28;1832;-71
2022/08/29 10:36:07;;;;;;;;;;;;;;;;;;5062188;28;2416;-71
2022/08/29 10:38:44;;;;;;;;;;;;;;;;;;5059789;28;2954;-71
2022/08/29 10:41:25;;;;;;;;;;;;;;;;;;5063377;28;2181;-71
2022/08/29 10:43:53;;;;;;;;;;;;;;;;;;5060921;28;1811;-71
2022/08/29 10:46:31;;;;;;;;;;;;;;;;;;5063704;28;2309;-73
2022/08/29 10:49:16;;;;;;;;;;;;;;;;;;5056795;28;1801;-71
2022/08/29 10:51:41;;;;;;;;;;;;;;;;;;5059689;28;2693;-71
2022/08/29 10:54:16;;;;;;;;;;;;;;;;;;5061717;28;1995;-71
2022/08/29 10:56:43;;;;;;;;;;;;;;;;;;5059606;28;2681;-71
2022/08/29 10:59:17;;;;;;;;;;;;;;;;;;5057398;28;1732;-71
2022/08/29 11:01:42;;;;;;;;;;;;;;;;;;5058972;28;2706;-71
2022/08/29 11:04:16;;;;;;;;;;;;;;;;;;5061021;28;2891;-71
2022/08/29 11:07:00;;;;;;;;;;;;;;;;;;5057709;28;1926;-71
2022/08/29 11:09:29;;;;;;;;;;;;;;;;;;5060463;28;2893;-71
2022/08/29 11:12:00;;;;;;;;;;;;;;;;;;5062377;28;2635;-71
2022/08/29 11:14:31;;;;;;;;;;;;;;;;;;5056677;28;2109;-71
2022/08/29 11:16:58;;;;;;;;;;;;;;;;;;5062434;28;2745;-71
2022/08/29 11:19:27;;;;;;;;;;;;;;;;;;5060172;28;2895;-71
2022/08/29 11:22:15;;;;;;;;;;;;;;;;;;5058327;28;2911;-71
2022/08/29 11:24:42;;;;;;;;;;;;;;;;;;5062069;28;2772;-71
2022/08/29 11:27:14;;;;;;;;;;;;;;;;;;5059310;28;2007;-71
2022/08/29 11:29:46;;;;;;;;;;;;;;;;;;5057301;28;1777;-71
2022/08/29 11:32:25;;;;;;;;;;;;;;;;;;5058047;28;2488;-71
2022/08/29 11:34:51;;;;;;;;;;;;;;;;;;5058134;28;1709;-71
2022/08/29 11:37:29;;;;;;;;;;;;;;;;;;5059147;28;2236;-71
2022/08/29 11:39:56;;;;;;;;;;;;;;;;;;5063894;28;2648;-71
2022/08/29 11:42:26;;;;;;;;;;;;;;;;;;5057222;28;2769;-71
2022/08/29 11:44:53;;;;;;;;;;;;;;;;;;5059715;28;2075;-71
2022/08/29 11:47:30;;;;;;;;;;;;;;;;;;5060929;28;2934;-71
2022/08/29 11:50:01;;;;;;;;;;;;;;;;;;5066472;28;2076;-71
2022/08/29 11:52:28;;;;;;;;;;;;;;;;;;5054372;28;2725;-71
2022/08/29 11:55:10;;;;;;;;;;;;;;;;;;5058124;28;2195;-71
2022/08/29 11:57:37;;;;;;;;;;;;;;;;;;5055191;28;2700;-71
2022/08/29 12:00:21;;;;;;;;;;;;;;;;;;5061733;28;2962;-71
2022/08/29 12:02:47;;;;;;;;;;;;;;;;;;5060478;28;1779;-71
2022/08/29 12:05:15;;;;;;;;;;;;;;;;;;5062345;28;2022;-71
2022/08/29 12:07:49;;;;;;;;;;;;;;;;;;5057430;28;2452;-71
2022/08/29 12:10:23;;;;;;;;;;;;;;;;;;5059310;28;1732;-71
2022/08/29 12:12:49;;;;;;;;;;;;;;;;;;5060316;28;1953;-71
2022/08/29 12:15:33;;;;;;;;;;;;;;;;;;5061714;28;2185;-71
2022/08/29 12:17:58;;;;;;;;;;;;;;;;;;5047692;28;1858;-71
2022/08/29 12:20:29;;;;;;;;;;;;;;;;;;5057304;28;2886;-71
2022/08/29 12:22:54;;;;;;;;;;;;;;;;;;5057521;28;1689;-71
2022/08/29 12:25:26;;;;;;;;;;;;;;;;;;5051654;28;2744;-71
2022/08/29 12:28:03;;;;;;;;;;;;;;;;;;5040664;28;2247;-71
2022/08/29 12:30:33;;;;;;;;;;;;;;;;;;5056100;28;2795;-71
2022/08/29 12:33:14;;;;;;;;;;;;;;;;;;5058727;28;1696;-71
2022/08/29 12:36:04;;;;;;;;;;;;;;;;;;5054495;28;2103;-71
2022/08/29 12:38:32;;;;;;;;;;;;;;;;;;5055089;28;1773;-71
2022/08/29 12:41:03;;;;;;;;;;;;;;;;;;5062320;28;2620;-71
2022/08/29 12:43:28;;;;;;;;;;;;;;;;;;5055000;28;1928;-71
2022/08/29 12:45:54;;;;;;;;;;;;;;;;;;5062646;28;2603;-71
2022/08/29 12:48:27;;;;;;;;;;;;;;;;;;5054320;28;1957;-71
2022/08/29 12:50:53;;;;;;;;;;;;;;;;;;5056780;28;2891;-71
2022/08/29 12:53:26;;;;;;;;;;;;;;;;;;5054112;28;1828;-71
2022/08/29 12:55:54;;;;;;;;;;;;;;;;;;5058806;28;2815;-71
2022/08/29 12:58:37;;;;;;;;;;;;;;;;;;5053975;28;1844;-71
2022/08/29 13:01:03;;;;;;;;;;;;;;;;;;5060216;28;2795;-71
2022/08/29 13:03:28;;;;;;;;;;;;;;;;;;5054409;28;1831;-71
2022/08/29 13:06:02;;;;;;;;;;;;;;;;;;5061673;28;2903;-71
2022/08/29 13:08:29;;;;;;;;;;;;;;;;;;5054383;28;1971;-71
2022/08/29 13:11:02;;;;;;;;;;;;;;;;;;5057602;28;2146;-71
2022/08/29 13:13:28;;;;;;;;;;;;;;;;;;5056280;28;1788;-71
2022/08/29 13:15:54;;;;;;;;;;;;;;;;;;5055289;28;2790;-71
2022/08/29 13:18:20;;;;;;;;;;;;;;;;;;5053886;28;1797;-71
2022/08/29 13:21:04;;;;;;;;;;;;;;;;;;5058932;28;2868;-71
2022/08/29 13:23:44;;;;;;;;;;;;;;;;;;5054415;28;1835;-71
2022/08/29 13:26:09;;;;;;;;;;;;;;;;;;5063095;28;2328;-71
2022/08/29 13:28:47;;;;;;;;;;;;;;;;;;5055083;28;1823;-71
2022/08/29 13:31:12;;;;;;;;;;;;;;;;;;5064749;28;1993;-71
2022/08/29 13:33:39;;;;;;;;;;;;;;;;;;5055430;28;1871;-71
2022/08/29 13:36:22;;;;;;;;;;;;;;;;;;5061986;28;2772;-71
2022/08/29 13:39:07;;;;;;;;;;;;;;;;;;5058459;28;1768;-71
2022/08/29 13:41:32;;;;;;;;;;;;;;;;;;5058368;28;2576;-71
2022/08/29 13:43:58;;;;;;;;;;;;;;;;;;5061310;28;2596;-71
2022/08/29 13:46:29;;;;;;;;;;;;;;;;;;5061271;28;2271;-71
2022/08/29 13:49:01;;;;;;;;;;;;;;;;;;5055892;28;1808;-71
2022/08/29 13:51:27;;;;;;;;;;;;;;;;;;5061653;28;2124;-71
2022/08/29 13:53:53;;;;;;;;;;;;;;;;;;5056085;28;1720;-71
2022/08/29 13:56:21;;;;;;;;;;;;;;;;;;5063972;28;3177;-71
2022/08/29 13:58:46;;;;;;;;;;;;;;;;;;5058127;28;1696;-71
2022/08/29 14:01:11;;;;;;;;;;;;;;;;;;5063535;28;2969;-71
2022/08/29 14:03:36;;;;;;;;;;;;;;;;;;5055057;28;1863;-71
2022/08/29 14:06:02;;;;;;;;;;;;;;;;;;5061201;28;2768;-71
2022/08/29 14:08:28;;;;;;;;;;;;;;;;;;5056017;28;1910;-71
2022/08/29 14:10:53;;;;;;;;;;;;;;;;;;5056170;28;2776;-71
2022/08/29 14:13:19;;;;;;;;;;;;;;;;;;5060349;28;1915;-71
2022/08/29 14:15:44;;;;;;;;;;;;;;;;;;5060781;28;2636;-71
2022/08/29 14:18:09;;;;;;;;;;;;;;;;;;5061402;28;1827;-71
2022/08/29 14:20:35;;;;;;;;;;;;;;;;;;5061532;28;2777;-71
2022/08/29 14:23:01;;;;;;;;;;;;;;;;;;5061895;28;2388;-71
2022/08/29 14:25:26;;;;;;;;;;;;;;;;;;5062749;28;2918;-71
2022/08/29 14:27:52;;;;;;;;;;;;;;;;;;5062165;28;2478;-71
2022/08/29 14:30:19;;;;;;;;;;;;;;;;;;5062926;28;2022;-71
2022/08/29 14:32:45;;;;;;;;;;;;;;;;;;5061193;28;2708;-71
2022/08/29 14:35:11;;;;;;;;;;;;;;;;;;5063644;28;2065;-71
2022/08/29 14:37:36;;;;;;;;;;;;;;;;;;5060483;28;2163;-71
2022/08/29 14:40:02;;;;;;;;;;;;;;;;;;5063533;28;2205;-71
2022/08/29 14:42:28;;;;;;;;;;;;;;;;;;5062241;28;2877;-71
2022/08/29 14:44:53;;;;;;;;;;;;;;;;;;5057338;28;2942;-71
2022/08/29 14:47:18;;;;;;;;;;;;;;;;;;5068137;28;2876;-71
2022/08/29 14:49:43;;;;;;;;;;;;;;;;;;5059175;28;1779;-71
2022/08/29 14:52:13;;;;;;;;;;;;;;;;;;5068998;28;2478;-71
2022/08/29 14:54:38;;;;;;;;;;;;;;;;;;5059880;28;2587;-71
2022/08/29 14:57:04;;;;;;;;;;;;;;;;;;5067024;28;2479;-72
2022/08/29 14:59:29;;;;;;;;;;;;;;;;;;5067982;28;2257;-71
2022/08/29 15:01:54;;;;;;;;;;;;;;;;;;5069818;28;2573;-71
2022/08/29 15:04:19;;;;;;;;;;;;;;;;;;5070840;28;2692;-71
2022/08/29 15:06:45;;;;;;;;;;;;;;;;;;5063852;28;2335;-71
2022/08/29 15:09:10;;;;;;;;;;;;;;;;;;5061972;28;1672;-71
2022/08/29 15:11:35;;;;;;;;;;;;;;;;;;5061830;28;2753;-71
2022/08/29 15:14:00;;;;;;;;;;;;;;;;;;5058537;28;1677;-71
2022/08/29 15:16:27;;;;;;;;;;;;;;;;;;5064413;28;2756;-71
2022/08/29 15:18:52;;;;;;;;;;;;;;;;;;5058504;28;2027;-71
2022/08/29 15:21:17;;;;;;;;;;;;;;;;;;5066120;28;2058;-71
2022/08/29 15:23:42;;;;;;;;;;;;;;;;;;5056684;28;1784;-71
2022/08/29 15:26:07;;;;;;;;;;;;;;;;;;5050600;28;3205;-71
2022/08/29 15:28:33;;;;;;;;;;;;;;;;;;5059532;28;1964;-71
2022/08/29 15:30:58;;;;;;;;;;;;;;;;;;5064011;28;1876;-71
2022/08/29 15:33:23;;;;;;;;;;;;;;;;;;5059566;28;2854;-71
2022/08/29 15:35:48;;;;;;;;;;;;;;;;;;5060070;28;2606;-71
2022/08/29 15:38:13;;;;;;;;;;;;;;;;;;5058732;28;2609;-71
2022/08/29 15:40:38;;;;;;;;;;;;;;;;;;5057150;28;2775;-71
2022/08/29 15:43:04;;;;;;;;;;;;;;;;;;5060489;28;2978;-71
2022/08/29 15:45:29;;;;;;;;;;;;;;;;;;5059119;28;2154;-71
2022/08/29 15:47:57;;;;;;;;;;;;;;;;;;5059429;28;2961;-71
2022/08/29 15:50:22;;;;;;;;;;;;;;;;;;5060999;28;2807;-71
2022/08/29 15:52:47;;;;;;;;;;;;;;;;;;5058954;28;2598;-71
2022/08/29 15:55:12;;;;;;;;;;;;;;;;;;5065591;28;1944;-71
2022/08/29 15:57:38;;;;;;;;;;;;;;;;;;5057336;28;2885;-71
2022/08/29 16:00:05;;;;;;;;;;;;;;;;;;5062582;28;2885;-71
2022/08/29 16:02:30;;;;;;;;;;;;;;;;;;5059133;28;2832;-71
2022/08/29 16:04:55;;;;;;;;;;;;;;;;;;5057990;28;2114;-71
2022/08/29 16:07:21;;;;;;;;;;;;;;;;;;5062712;28;2934;-71
2022/08/29 16:09:46;;;;;;;;;;;;;;;;;;5060223;28;2735;-71
2022/08/29 16:12:11;;;;;;;;;;;;;;;;;;5061798;28;2739;-71
2022/08/29 16:14:36;;;;;;;;;;;;;;;;;;5056738;28;2832;-71
2022/08/29 16:17:02;;;;;;;;;;;;;;;;;;5064291;28;2744;-71
2022/08/29 16:19:28;;;;;;;;;;;;;;;;;;5055487;28;1812;-71
2022/08/29 16:21:58;;;;;;;;;;;;;;;;;;5059443;28;2241;-71
2022/08/29 16:24:24;;;;;;;;;;;;;;;;;;5061013;28;1927;-71
2022/08/29 16:26:50;;;;;;;;;;;;;;;;;;5060911;28;2135;-71
2022/08/29 16:29:15;;;;;;;;;;;;;;;;;;5055168;28;1827;-71
2022/08/29 16:31:40;;;;;;;;;;;;;;;;;;5056497;28;2232;-71
2022/08/29 16:34:05;;;;;;;;;;;;;;;;;;5056341;28;1733;-71
2022/08/29 16:36:30;;;;;;;;;;;;;;;;;;5057670;28;2313;-70
2022/08/29 16:38:56;;;;;;;;;;;;;;;;;;5058205;28;1644;-84
2022/08/29 16:41:22;;;;;;;;;;;;;;;;;;5048577;28;2225;-84
2022/08/29 16:43:50;;;;;;;;;;;;;;;;;;5056529;28;1753;-84
2022/08/29 16:46:17;;;;;;;;;;;;;;;;;;5045663;28;1984;-89
2022/08/29 16:48:42;;;;;;;;;;;;;;;;;;5037831;28;1774;-85
2022/08/29 16:51:08;;;;;;;;;;;;;;;;;;5045844;28;1970;-84
2022/08/29 16:53:33;;;;;;;;;;;;;;;;;;5045648;28;2079;-84
2022/08/29 16:56:06;;;;;;;;;;;;;;;;;;5065104;28;1994;-84
2022/08/29 17:01:16;;;;;;;;;;;;;;;;;;5060083;28;1672;-84
2022/08/29 17:03:42;;;;;;;;;;;;;;;;;;5062406;28;2326;-84
2022/08/29 17:06:07;;;;;;;;;;;;;;;;;;5045002;28;1780;-84
2022/08/29 17:18:15;;;;;;;;;;;;;;;;;;5058909;28;1916;-82
2022/08/29 17:20:40;;;;;;;;;;;;;;;;;;5055384;28;2169;-83